Weather at Gjilan Regional Hospital Heliport

Public forecast

Using degrees Celsius for public forecast. Weather courtesy of forecast.io.

Closest aviation weather report (METAR) to Gjilan Regional Hospital Heliport

Closest report is Priština Adem Jashari International Airport, 20.1 nm (37.2 km) WNW.

2024/05/23 23:30 (retrieved 28 minutes ago)

BKPR 232330Z VRB02KT CAVOK 12/11 Q1018 NOSIG

Closest aviation forecast (TAF) to Gjilan Regional Hospital Heliport

Closest forecast is Priština Adem Jashari International Airport, 20.1 nm (37.2 km) WNW.

2024/05/23 18:00 (retrieved 6 hours ago)

TAF BKPR 231730Z 2318/2418 35009KT 9999 SCT040 TEMPO 2318/2320 5000 -TSRA SCT030CB TEMPO 2403/2407 3000 BR TEMPO 2410/2418 VRB15G25KT 4000 TSRA SCT025CB